createdAt,value
2022-09-02T00:02:11.631Z,10.30
2022-09-02T00:08:05.390Z,10.30
2022-09-02T00:11:02.980Z,10.30
2022-09-02T00:14:03.713Z,10.30
2022-09-02T00:16:54.744Z,10.00
2022-09-02T00:22:40.005Z,9.70
2022-09-02T00:28:40.651Z,9.60
2022-09-02T00:31:48.780Z,9.60
2022-09-02T00:34:23.272Z,9.70
2022-09-02T00:37:12.911Z,9.70
2022-09-02T00:48:25.097Z,9.90
2022-09-02T01:06:25.550Z,10.70
2022-09-02T01:15:16.525Z,11.30
2022-09-02T01:21:12.471Z,11.50
2022-09-02T01:24:20.206Z,11.50
2022-09-02T01:27:37.349Z,11.60
2022-09-02T01:30:26.616Z,11.70
2022-09-02T01:39:53.669Z,11.70
2022-09-02T01:42:44.853Z,11.80
2022-09-02T01:45:42.747Z,11.70
2022-09-02T02:00:43.191Z,11.70
2022-09-02T02:03:26.274Z,11.70
2022-09-02T02:06:04.003Z,11.70
2022-09-02T02:09:02.915Z,11.70
2022-09-02T02:11:37.622Z,11.70
2022-09-02T02:14:31.344Z,11.70
2022-09-02T02:17:17.576Z,11.70
2022-09-02T02:22:38.938Z,11.30
2022-09-02T02:25:43.378Z,11.20
2022-09-02T02:28:17.824Z,10.70
2022-09-02T02:36:35.722Z,11.60
2022-09-02T02:39:46.159Z,10.50
2022-09-02T02:48:33.857Z,8.50
2022-09-02T02:51:09.342Z,9.90
2022-09-02T02:53:58.587Z,9.80
2022-09-02T02:56:32.921Z,9.80
2022-09-02T02:59:22.711Z,9.80
2022-09-02T03:02:18.615Z,9.80
2022-09-02T03:05:05.086Z,9.80
2022-09-02T03:07:45.088Z,9.80
2022-09-02T03:10:35.900Z,9.90
2022-09-02T03:16:03.410Z,9.90
2022-09-02T03:18:48.968Z,9.90
2022-09-02T03:21:30.033Z,9.90
2022-09-02T03:29:39.086Z,9.90
2022-09-02T03:35:38.920Z,9.70
2022-09-02T03:38:22.512Z,9.60
2022-09-02T03:41:15.714Z,9.50
2022-09-02T03:46:32.543Z,9.40
2022-09-02T03:49:25.218Z,9.30
2022-09-02T03:58:08.591Z,9.50
2022-09-02T04:00:44.885Z,7.40
2022-09-02T04:03:33.581Z,9.60
2022-09-02T04:06:38.943Z,9.70
2022-09-02T04:10:01.303Z,9.60
2022-09-02T04:16:11.632Z,9.60
2022-09-02T04:21:29.219Z,9.50
2022-09-02T04:24:22.435Z,9.40
2022-09-02T04:27:18.340Z,9.10
2022-09-02T04:30:12.758Z,9.10
2022-09-02T04:35:29.554Z,9.20
2022-09-02T04:38:33.653Z,9.30
2022-09-02T04:47:35.363Z,9.40
2022-09-02T04:50:42.813Z,9.50
2022-09-02T04:53:43.618Z,9.40
2022-09-02T05:06:44.085Z,9.80
2022-09-02T05:09:11.685Z,9.90
2022-09-02T05:11:38.955Z,10.00
2022-09-02T05:14:07.678Z,10.10
2022-09-02T05:16:38.692Z,10.30
2022-09-02T05:19:11.934Z,10.40
2022-09-02T05:21:43.564Z,10.40
2022-09-02T05:29:08.430Z,10.20
2022-09-02T05:31:36.068Z,10.20
2022-09-02T05:37:00.427Z,10.30
2022-09-02T05:46:31.364Z,10.80
2022-09-02T05:49:26.312Z,10.90
2022-09-02T05:52:10.389Z,11.00
2022-09-02T05:54:39.402Z,11.10
2022-09-02T05:57:27.590Z,11.20
2022-09-02T06:02:33.271Z,11.50
2022-09-02T06:05:07.317Z,11.70
2022-09-02T06:07:42.121Z,11.90
2022-09-02T06:17:42.294Z,12.20
2022-09-02T06:27:34.182Z,12.30
2022-09-02T06:34:56.625Z,12.50
2022-09-02T06:39:51.286Z,12.70
2022-09-02T06:44:45.821Z,13.00
2022-09-02T06:47:13.191Z,13.30
2022-09-02T06:57:04.419Z,13.50
2022-09-02T07:01:59.409Z,13.70
2022-09-02T07:14:39.729Z,14.10
2022-09-02T07:19:35.019Z,14.30
2022-09-02T07:22:05.100Z,14.30
2022-09-02T07:26:59.717Z,14.60
2022-09-02T07:41:50.522Z,15.30
2022-09-02T07:44:20.179Z,18.50
2022-09-02T07:51:54.191Z,15.70
2022-09-02T07:54:25.109Z,15.90
2022-09-02T08:04:23.509Z,15.90
2022-09-02T08:06:53.029Z,16.20
2022-09-02T08:09:21.698Z,16.40
2022-09-02T08:11:50.712Z,16.50
2022-09-02T08:14:23.157Z,16.60
2022-09-02T08:16:53.960Z,16.60
2022-09-02T08:19:22.562Z,16.50
2022-09-02T08:21:49.926Z,16.70
2022-09-02T08:26:44.595Z,16.40
2022-09-02T08:29:11.880Z,15.40
2022-09-02T08:36:34.682Z,17.00
2022-09-02T08:39:04.994Z,17.00
2022-09-02T08:41:47.707Z,15.90
2022-09-02T08:44:21.751Z,16.30
2022-09-02T08:46:54.119Z,13.00
2022-09-02T08:49:29.042Z,16.70
2022-09-02T08:52:01.215Z,17.00
2022-09-02T08:54:56.082Z,17.50
2022-09-02T08:57:27.292Z,17.70
2022-09-02T08:59:58.679Z,17.50
2022-09-02T09:03:05.476Z,18.10
2022-09-02T09:05:59.856Z,17.20
2022-09-02T09:08:53.462Z,16.90
2022-09-02T09:11:46.807Z,16.70
2022-09-02T09:14:38.713Z,16.60
2022-09-02T09:17:17.288Z,15.60
2022-09-02T09:20:07.888Z,16.50
2022-09-02T09:22:38.908Z,16.70
2022-09-02T09:25:11.633Z,16.70
2022-09-02T09:30:14.455Z,17.50
2022-09-02T09:32:51.270Z,17.40
2022-09-02T09:35:19.792Z,18.30
2022-09-02T09:38:12.519Z,18.50
2022-09-02T09:43:30.055Z,18.40
2022-09-02T09:48:29.263Z,17.50
2022-09-02T09:51:16.499Z,17.50
2022-09-02T09:53:44.635Z,16.70
2022-09-02T09:56:36.936Z,16.70
2022-09-02T09:59:07.791Z,16.80
2022-09-02T10:01:35.894Z,16.80
2022-09-02T10:04:26.233Z,16.50
2022-09-02T10:06:57.740Z,16.50
2022-09-02T10:09:49.211Z,16.40
2022-09-02T10:12:33.682Z,16.10
2022-09-02T10:17:57.988Z,16.40
2022-09-02T10:21:13.642Z,16.20
2022-09-02T10:24:21.936Z,16.20
2022-09-02T10:26:52.882Z,16.20
2022-09-02T10:29:59.901Z,12.90
2022-09-02T10:33:00.897Z,16.70
2022-09-02T10:35:56.963Z,16.80
2022-09-02T10:38:45.114Z,16.80
2022-09-02T10:41:35.395Z,16.70
2022-09-02T10:44:42.326Z,16.70
2022-09-02T10:47:30.701Z,15.40
2022-09-02T10:50:24.516Z,16.80
2022-09-02T10:53:31.398Z,17.10
2022-09-02T10:56:21.802Z,17.40
2022-09-02T10:59:14.813Z,14.10
2022-09-02T11:02:21.725Z,18.00
2022-09-02T11:04:55.064Z,18.40
2022-09-02T11:07:28.745Z,18.50
2022-09-02T11:10:09.746Z,17.00
2022-09-02T11:12:41.973Z,17.90
2022-09-02T11:15:48.895Z,18.00
2022-09-02T11:18:31.854Z,18.20
2022-09-02T11:21:38.605Z,18.10
2022-09-02T11:24:13.703Z,18.10
2022-09-02T11:26:45.318Z,18.20
2022-09-02T11:29:37.416Z,18.20
2022-09-02T11:32:31.750Z,18.30
2022-09-02T11:35:03.464Z,17.90
2022-09-02T11:37:53.525Z,16.30
2022-09-02T11:44:14.787Z,17.10
2022-09-02T11:47:21.558Z,17.40
2022-09-02T11:50:30.720Z,17.90
2022-09-02T11:53:30.891Z,18.20
2022-09-02T11:56:04.758Z,18.20
2022-09-02T11:58:53.348Z,18.50
2022-09-02T12:01:47.650Z,18.40
2022-09-02T12:04:59.880Z,17.70
2022-09-02T12:07:50.122Z,17.50
2022-09-02T12:10:59.472Z,17.70
2022-09-02T12:13:46.222Z,17.80
2022-09-02T12:16:54.382Z,17.80
2022-09-02T12:19:28.362Z,18.00
2022-09-02T12:22:38.872Z,17.40
2022-09-02T12:25:45.915Z,18.10
2022-09-02T12:28:33.636Z,16.20
2022-09-02T12:31:42.888Z,18.00
2022-09-02T12:34:49.666Z,17.90
2022-09-02T12:37:57.065Z,17.60
2022-09-02T12:40:31.391Z,17.40
2022-09-02T12:43:01.610Z,17.30
2022-09-02T12:45:33.059Z,17.20
2022-09-02T12:48:30.444Z,17.20
2022-09-02T12:53:42.336Z,18.10
2022-09-02T12:56:29.321Z,18.00
2022-09-02T12:59:02.278Z,15.10
2022-09-02T13:02:09.453Z,18.00
2022-09-02T13:05:06.786Z,17.80
2022-09-02T13:08:13.609Z,17.70
2022-09-02T13:11:14.866Z,17.40
2022-09-02T13:14:21.653Z,16.90
2022-09-02T13:17:35.514Z,16.90
2022-09-02T13:20:43.263Z,17.10
2022-09-02T13:23:50.185Z,18.00
2022-09-02T13:26:50.220Z,18.30
2022-09-02T13:29:57.680Z,18.40
2022-09-02T13:32:29.803Z,16.50
2022-09-02T13:35:02.734Z,18.40
2022-09-02T13:37:52.199Z,15.70
2022-09-02T13:40:28.848Z,17.80
2022-09-02T13:43:35.871Z,18.70
2022-09-02T13:48:40.020Z,18.30
2022-09-02T13:51:13.944Z,18.60
2022-09-02T13:54:04.956Z,18.70
2022-09-02T13:59:00.036Z,18.70
2022-09-02T14:01:32.938Z,18.40
2022-09-02T14:04:06.201Z,18.40
2022-09-02T14:06:37.394Z,18.00
2022-09-02T14:09:08.626Z,17.80
2022-09-02T14:11:43.383Z,17.60
2022-09-02T14:14:22.200Z,20.20
2022-09-02T14:16:49.362Z,17.60
2022-09-02T14:19:36.338Z,17.50
2022-09-02T14:24:39.760Z,17.50
2022-09-02T14:27:18.539Z,17.60
2022-09-02T14:29:48.276Z,17.60
2022-09-02T14:32:23.081Z,17.10
2022-09-02T14:35:10.986Z,16.80
2022-09-02T14:37:57.768Z,16.80
2022-09-02T14:40:43.634Z,17.10
2022-09-02T14:43:14.156Z,16.20
2022-09-02T14:45:47.827Z,16.90
2022-09-02T14:48:25.210Z,17.00
2022-09-02T14:51:03.097Z,17.20
2022-09-02T14:53:30.783Z,17.20
2022-09-02T14:55:58.837Z,17.30
2022-09-02T14:58:30.289Z,17.10
2022-09-02T15:00:59.652Z,17.10
2022-09-02T15:10:50.380Z,16.60
2022-09-02T15:13:44.481Z,16.40
2022-09-02T15:16:12.090Z,16.30
2022-09-02T15:31:00.946Z,16.70
2022-09-02T15:36:04.731Z,16.60
2022-09-02T15:41:13.306Z,16.60
2022-09-02T15:43:40.862Z,18.50
2022-09-02T15:46:37.827Z,16.40
2022-09-02T15:49:08.856Z,16.40
2022-09-02T15:51:38.586Z,16.50
2022-09-02T15:54:09.254Z,16.40
2022-09-02T15:56:38.133Z,16.30
2022-09-02T15:59:10.596Z,16.20
2022-09-02T16:01:41.589Z,14.80
2022-09-02T16:04:08.994Z,16.10
2022-09-02T16:06:39.060Z,16.00
2022-09-02T16:09:07.790Z,15.90
2022-09-02T16:11:38.439Z,15.90
2022-09-02T16:16:34.805Z,16.00
2022-09-02T16:19:03.854Z,16.10
2022-09-02T16:26:28.762Z,16.00
2022-09-02T16:28:59.398Z,16.10
2022-09-02T16:31:30.049Z,16.00
2022-09-02T16:34:00.038Z,15.70
2022-09-02T16:36:33.000Z,15.60
2022-09-02T16:39:01.238Z,15.70
2022-09-02T16:41:50.307Z,13.80
2022-09-02T16:44:20.215Z,15.60
2022-09-02T16:46:49.018Z,13.30
2022-09-02T16:49:18.691Z,15.40
2022-09-02T16:51:46.798Z,12.40
2022-09-02T16:54:17.494Z,15.30
2022-09-02T16:56:48.876Z,15.30
2022-09-02T17:06:42.399Z,15.20
2022-09-02T17:09:09.855Z,15.10
2022-09-02T17:11:39.943Z,15.00
2022-09-02T17:14:11.472Z,15.00
2022-09-02T17:16:40.995Z,14.90
2022-09-02T17:21:57.007Z,14.90
2022-09-02T17:24:27.962Z,14.80
2022-09-02T17:26:56.444Z,15.00
2022-09-02T17:29:48.103Z,14.70
2022-09-02T17:32:12.543Z,14.60
2022-09-02T17:42:06.627Z,14.60
2022-09-02T17:44:37.638Z,14.50
2022-09-02T17:47:09.016Z,14.50
2022-09-02T17:49:37.672Z,17.00
2022-09-02T17:52:07.772Z,12.20
2022-09-02T17:54:36.275Z,14.30
2022-09-02T17:57:43.475Z,11.90
2022-09-02T18:00:14.975Z,13.40
2022-09-02T18:03:24.285Z,14.20
2022-09-02T18:06:09.394Z,14.10
2022-09-02T18:09:01.272Z,14.20
2022-09-02T18:14:23.633Z,14.10
2022-09-02T18:17:30.439Z,14.10
2022-09-02T18:20:22.988Z,14.10
2022-09-02T18:23:29.819Z,14.20
2022-09-02T18:26:36.574Z,14.10
2022-09-02T18:29:37.770Z,14.10
2022-09-02T18:32:44.610Z,13.10
2022-09-02T18:35:51.362Z,13.90
2022-09-02T18:38:58.671Z,13.80
2022-09-02T18:42:05.483Z,13.70
2022-09-02T18:45:01.321Z,11.10
2022-09-02T18:47:32.652Z,13.70
2022-09-02T18:50:03.520Z,13.70
2022-09-02T18:52:30.710Z,13.60
2022-09-02T18:55:17.787Z,13.80
2022-09-02T18:57:51.970Z,13.70
2022-09-02T19:03:01.587Z,13.80
2022-09-02T19:05:31.473Z,13.60
2022-09-02T19:08:38.280Z,13.70
2022-09-02T19:11:09.061Z,13.60
2022-09-02T19:14:03.215Z,13.70
2022-09-02T19:16:33.678Z,13.60
2022-09-02T19:21:48.703Z,13.60
2022-09-02T19:24:39.416Z,13.70
2022-09-02T19:27:10.795Z,13.70
2022-09-02T19:29:41.660Z,13.70
2022-09-02T19:34:39.834Z,13.60
2022-09-02T19:37:08.409Z,13.50
2022-09-02T19:44:30.684Z,13.50
2022-09-02T19:49:45.351Z,13.60
2022-09-02T19:52:12.650Z,13.50
2022-09-02T19:54:41.665Z,13.50
2022-09-02T19:57:08.999Z,11.50
2022-09-02T20:17:15.716Z,13.20
2022-09-02T20:19:53.364Z,13.20
2022-09-02T20:22:26.019Z,13.10
2022-09-02T20:27:48.337Z,13.10
2022-09-02T20:30:22.223Z,13.00
2022-09-02T20:33:18.501Z,13.00
2022-09-02T20:36:25.765Z,13.00
2022-09-02T20:39:33.374Z,13.00
2022-09-02T20:46:16.021Z,12.90
2022-09-02T20:49:31.152Z,12.90
2022-09-02T20:52:27.102Z,12.90
2022-09-02T20:55:12.934Z,12.80
2022-09-02T20:58:22.472Z,12.70
2022-09-02T21:01:14.530Z,12.70
2022-09-02T21:04:21.888Z,12.60
2022-09-02T21:07:18.152Z,12.60
2022-09-02T21:10:30.114Z,12.60
2022-09-02T21:13:08.964Z,12.60
2022-09-02T21:15:56.643Z,12.50
2022-09-02T21:18:53.232Z,12.60
2022-09-02T21:22:01.224Z,12.50
2022-09-02T21:24:53.409Z,12.50
2022-09-02T21:27:45.589Z,12.60
2022-09-02T21:30:20.105Z,12.50
2022-09-02T21:33:06.899Z,12.60
2022-09-02T21:35:44.467Z,12.60
2022-09-02T21:38:37.498Z,12.40
2022-09-02T21:41:44.405Z,12.50
2022-09-02T21:44:51.682Z,12.40
2022-09-02T21:47:59.280Z,12.30
2022-09-02T21:50:59.055Z,12.40
2022-09-02T21:53:54.566Z,12.40
2022-09-02T21:56:51.647Z,12.40
2022-09-02T22:00:07.815Z,12.30
2022-09-02T22:03:00.090Z,12.30
2022-09-02T22:06:07.009Z,12.30
2022-09-02T22:09:04.646Z,12.30
2022-09-02T22:11:54.750Z,12.40
2022-09-02T22:14:48.477Z,12.40
2022-09-02T22:17:46.196Z,12.50
2022-09-02T22:20:18.850Z,12.50
2022-09-02T22:22:53.569Z,12.40
2022-09-02T22:25:24.919Z,12.40
2022-09-02T22:28:21.497Z,12.40
2022-09-02T22:30:56.467Z,12.40
2022-09-02T22:33:28.419Z,12.40
2022-09-02T22:36:06.806Z,12.40
2022-09-02T22:38:49.955Z,12.50
2022-09-02T22:41:47.275Z,12.50
2022-09-02T22:44:22.705Z,12.50
2022-09-02T22:47:20.177Z,12.50
2022-09-02T22:50:12.526Z,12.50
2022-09-02T22:52:53.653Z,12.50
2022-09-02T22:56:03.595Z,12.50
2022-09-02T22:59:10.655Z,12.50
2022-09-02T23:02:18.391Z,12.40
2022-09-02T23:05:03.612Z,12.50
2022-09-02T23:07:31.809Z,12.50
2022-09-02T23:10:00.847Z,12.40
2022-09-02T23:12:52.972Z,12.50
2022-09-02T23:15:45.012Z,12.50
2022-09-02T23:18:24.614Z,12.60
2022-09-02T23:21:02.083Z,12.60
2022-09-02T23:24:09.962Z,12.70
2022-09-02T23:27:05.826Z,12.70
2022-09-02T23:32:45.131Z,12.80
2022-09-02T23:35:53.848Z,12.80
2022-09-02T23:39:00.658Z,12.80
2022-09-02T23:43:59.625Z,12.90
2022-09-02T23:46:59.322Z,12.90
2022-09-02T23:50:06.670Z,12.90
2022-09-02T23:52:59.519Z,13.00
2022-09-02T23:55:55.882Z,13.00
2022-09-02T23:59:00.345Z,13.00
